Time;durP1;ratioP1;P1;durP2;ratioP2;P2;SDS_P1;SDS_P2;PMS_P1;PMS_P2;Temp;Humidity;BMP_temperature;BMP_pressure;BME280_temperature;BME280_humidity;BME280_pressure;Samples;Min_cycle;Max_cycle;Signal;HPM_P1;HPM_P2
2021/10/09 00:01:44;;;;;;;28.98;16.77;;;;;;;25.78;44.68;101990.34;4429785;32;20212;-70
2021/10/09 00:04:10;;;;;;;30.55;16.80;;;;;;;25.62;45.12;101988.12;4430998;32;20139;-70
2021/10/09 00:06:36;;;;;;;26.40;15.88;;;;;;;25.64;45.15;101991.28;4436009;32;20418;-70
2021/10/09 00:09:03;;;;;;;30.88;16.42;;;;;;;25.39;45.56;101989.25;4436113;32;20108;-70
2021/10/09 00:11:43;;;;;;;32.70;16.77;;;;;;;25.23;46.28;101992.75;4432047;32;20153;-70
2021/10/09 00:14:11;;;;;;;30.95;17.92;;;;;;;24.82;47.34;101997.88;4431796;32;20050;-70
2021/10/09 00:16:39;;;;;;;29.58;17.08;;;;;;;25.03;47.12;102007.22;4433945;32;20061;-70
2021/10/09 00:19:05;;;;;;;29.42;17.00;;;;;;;24.89;47.38;101991.69;4432358;32;21034;-70
2021/10/09 00:21:31;;;;;;;36.70;18.98;;;;;;;24.82;47.67;101988.47;4432370;32;20208;-70
2021/10/09 00:23:58;;;;;;;31.77;17.73;;;;;;;24.57;48.04;101978.47;4433894;32;20077;-70
2021/10/09 00:26:24;;;;;;;34.15;19.12;;;;;;;24.75;47.61;101977.38;4427689;32;20120;-70
2021/10/09 00:28:51;;;;;;;33.08;17.83;;;;;;;25.08;46.83;101975.63;4421772;32;20096;-70
2021/10/09 00:31:16;;;;;;;31.85;18.77;;;;;;;25.15;46.88;101980.91;4421574;32;20078;-70
2021/10/09 00:33:42;;;;;;;34.33;19.42;;;;;;;25.28;46.41;101978.41;4427044;32;20410;-70
2021/10/09 00:36:08;;;;;;;37.60;17.85;;;;;;;25.57;45.75;101977.34;4423093;32;20467;-70
2021/10/09 00:38:34;;;;;;;31.45;18.02;;;;;;;25.64;45.62;101976.09;4422015;32;20037;-70
2021/10/09 00:41:00;;;;;;;32.60;16.83;;;;;;;25.71;45.42;101976.37;4423228;32;20509;-70
2021/10/09 00:43:26;;;;;;;29.25;17.08;;;;;;;25.62;45.64;101970.84;4423323;32;20411;-70
2021/10/09 00:45:56;;;;;;;30.60;17.55;;;;;;;25.69;45.38;101981.09;4426524;32;20411;-70
2021/10/09 00:48:24;;;;;;;34.05;18.12;;;;;;;25.75;45.27;101968.28;4424037;32;20181;-70
2021/10/09 00:50:51;;;;;;;28.35;16.58;;;;;;;25.76;45.29;101966.19;4425319;32;20411;-70
2021/10/09 00:53:19;;;;;;;36.80;18.48;;;;;;;25.59;45.62;101962.41;4423046;32;20069;-70
2021/10/09 00:55:48;;;;;;;29.65;17.65;;;;;;;25.90;44.97;101966.03;4422227;32;20029;-70
2021/10/09 00:58:15;;;;;;;27.95;17.20;;;;;;;25.69;45.43;101970.34;4420425;32;20088;-70
2021/10/09 01:00:42;;;;;;;30.77;16.42;;;;;;;25.72;45.31;101963.56;4420348;32;20074;-70
2021/10/09 01:03:10;;;;;;;29.37;16.85;;;;;;;25.74;45.16;101963.03;4423923;32;20034;-70
2021/10/09 01:05:36;;;;;;;27.45;16.58;;;;;;;25.57;45.39;101965.81;4423596;32;20065;-70
2021/10/09 01:08:04;;;;;;;29.40;17.95;;;;;;;25.36;45.69;101955.69;4425582;32;20049;-70
2021/10/09 01:10:30;;;;;;;33.70;17.98;;;;;;;25.51;45.50;101969.94;4422485;32;20092;-70
2021/10/09 01:12:57;;;;;;;28.73;17.33;;;;;;;25.34;45.75;101970.62;4421111;32;20463;-70
2021/10/09 01:15:32;;;;;;;31.20;18.02;;;;;;;25.18;46.02;101973.34;4422543;32;20110;-70
2021/10/09 01:18:06;;;;;;;35.53;18.60;;;;;;;25.37;45.84;101970.91;4424162;32;20037;-70
2021/10/09 01:20:54;;;;;;;35.58;17.73;;;;;;;25.25;46.07;101962.13;4420035;32;20062;-70
2021/10/09 01:23:21;;;;;;;32.88;17.33;;;;;;;25.55;45.34;101961.87;4425908;32;20083;-70
2021/10/09 01:25:48;;;;;;;31.58;17.40;;;;;;;25.37;45.84;101957.25;4423145;32;20026;-70
2021/10/09 01:28:14;;;;;;;29.67;17.62;;;;;;;25.52;45.51;101957.12;4422265;32;20466;-70
2021/10/09 01:30:40;;;;;;;30.70;18.05;;;;;;;25.29;45.55;101951.19;4419776;32;20077;-70
2021/10/09 01:33:06;;;;;;;32.55;17.85;;;;;;;25.32;45.70;101949.38;4422054;32;20025;-70
2021/10/09 01:35:44;;;;;;;29.30;16.75;;;;;;;25.33;45.73;101946.00;4422173;32;20077;-70
2021/10/09 01:38:10;;;;;;;28.05;16.30;;;;;;;25.72;45.16;101951.22;4422792;32;20568;-70
2021/10/09 01:40:35;;;;;;;28.30;15.77;;;;;;;25.58;45.06;101949.31;4423357;32;20088;-70
2021/10/09 01:43:01;;;;;;;31.67;16.95;;;;;;;25.65;44.96;101955.37;4424440;32;20060;-70
2021/10/09 01:45:27;;;;;;;27.87;17.37;;;;;;;25.59;44.98;101948.00;4422200;32;20371;-70
2021/10/09 01:47:52;;;;;;;29.50;16.40;;;;;;;25.66;44.78;101947.50;4424810;32;20202;-70
2021/10/09 01:50:18;;;;;;;35.05;16.70;;;;;;;25.75;44.58;101944.41;4424074;32;20027;-70
2021/10/09 01:52:45;;;;;;;29.60;16.50;;;;;;;25.69;44.59;101947.28;4420744;32;20075;-70
2021/10/09 01:55:10;;;;;;;28.95;17.55;;;;;;;25.81;44.54;101945.25;4422617;32;20104;-70
2021/10/09 01:57:36;;;;;;;27.70;15.90;;;;;;;25.84;44.17;101949.97;4422718;32;20021;-70
2021/10/09 02:00:03;;;;;;;25.30;15.23;;;;;;;25.83;44.38;101940.53;4422217;32;20102;-70
2021/10/09 02:02:29;;;;;;;27.60;15.93;;;;;;;26.06;44.08;101945.16;4422304;32;20034;-70
2021/10/09 02:04:55;;;;;;;26.42;14.73;;;;;;;25.90;44.03;101939.25;4423938;32;20416;-70
2021/10/09 02:07:24;;;;;;;28.12;16.42;;;;;;;26.02;43.95;101941.72;4422487;32;20073;-70
2021/10/09 02:09:51;;;;;;;28.23;15.23;;;;;;;26.16;43.71;101937.03;4421795;32;20520;-70
2021/10/09 02:12:17;;;;;;;25.35;15.10;;;;;;;25.71;44.44;101938.13;4420530;32;20061;-70
2021/10/09 02:14:49;;;;;;;32.15;16.37;;;;;;;25.90;44.20;101942.16;4418008;32;20437;-70
2021/10/09 02:28:19;;;;;;;26.87;17.30;;;;;;;26.44;43.36;101938.72;3982160;32;15024863;-70
2021/10/09 02:30:46;;;;;;;23.62;14.55;;;;;;;26.44;43.36;101938.72;4432176;32;20037;-70
2021/10/09 02:33:12;;;;;;;29.60;15.25;;;;;;;25.99;43.93;101934.09;4432540;32;20033;-69
2021/10/09 02:35:38;;;;;;;27.45;15.05;;;;;;;26.15;43.49;101930.50;4430349;32;20038;-69
2021/10/09 02:38:07;;;;;;;25.00;14.68;;;;;;;26.13;43.38;101933.09;4434064;32;20510;-69
2021/10/09 02:40:34;;;;;;;26.42;14.77;;;;;;;26.21;43.30;101939.97;4434653;32;20428;-69
2021/10/09 02:43:01;;;;;;;27.10;13.82;;;;;;;26.18;43.43;101931.53;4433105;32;20319;-69
2021/10/09 02:45:27;;;;;;;25.92;14.50;;;;;;;26.22;43.23;101920.53;4431762;32;20065;-69
2021/10/09 02:47:59;;;;;;;26.80;15.75;;;;;;;26.22;43.16;101923.41;4431836;32;20056;-69
2021/10/09 02:50:25;;;;;;;28.33;15.27;;;;;;;26.48;42.68;101916.12;4431415;32;20200;-69
2021/10/09 02:52:51;;;;;;;28.67;15.25;;;;;;;26.18;43.17;101923.69;4434233;32;20041;-69
2021/10/09 02:55:19;;;;;;;27.92;15.18;;;;;;;26.06;43.15;101916.28;4437440;32;20165;-69
2021/10/09 02:57:46;;;;;;;26.60;14.85;;;;;;;26.05;43.35;101913.94;4433158;32;21111;-69
2021/10/09 03:00:12;;;;;;;29.55;14.87;;;;;;;26.20;43.21;101911.63;4434952;32;20399;-69
2021/10/09 03:02:38;;;;;;;26.58;15.32;;;;;;;26.06;43.60;101912.59;4432599;32;20079;-69
2021/10/09 03:05:05;;;;;;;27.70;15.07;;;;;;;26.03;43.69;101911.56;4434232;32;20466;-69
2021/10/09 03:07:31;;;;;;;26.00;15.30;;;;;;;26.22;43.39;101908.97;4435027;32;20029;-69
2021/10/09 03:09:57;;;;;;;28.58;15.32;;;;;;;26.21;43.36;101911.09;4431794;32;20022;-69
2021/10/09 03:12:23;;;;;;;25.77;14.68;;;;;;;26.17;43.20;101909.78;4432787;32;20612;-70
2021/10/09 03:14:49;;;;;;;27.98;15.25;;;;;;;26.24;43.17;101906.38;4432393;32;20089;-69
2021/10/09 03:17:15;;;;;;;27.20;15.07;;;;;;;26.23;43.19;101913.47;4432922;32;20061;-69
2021/10/09 03:19:40;;;;;;;23.98;14.13;;;;;;;26.34;42.76;101910.59;4434328;32;20132;-69
2021/10/09 03:22:06;;;;;;;30.27;15.60;;;;;;;26.20;43.00;101914.50;4432652;32;20371;-69
2021/10/09 03:24:32;;;;;;;31.25;14.82;;;;;;;26.18;42.96;101917.91;4433594;32;20022;-69
2021/10/09 03:26:58;;;;;;;28.05;15.68;;;;;;;26.20;42.98;101908.75;4431623;32;20068;-69
2021/10/09 03:29:23;;;;;;;27.17;14.35;;;;;;;25.84;43.55;101909.59;4431139;32;20055;-69
2021/10/09 03:31:49;;;;;;;27.67;14.77;;;;;;;26.04;43.38;101915.22;4432887;32;20108;-69
2021/10/09 03:34:15;;;;;;;29.27;15.50;;;;;;;26.10;43.21;101907.38;4432096;32;20489;-69
2021/10/09 03:36:41;;;;;;;25.25;14.35;;;;;;;26.13;43.10;101907.13;4431296;32;20038;-69
2021/10/09 03:39:10;;;;;;;24.92;14.27;;;;;;;26.16;43.06;101908.19;4421911;32;20359;-69
2021/10/09 03:41:38;;;;;;;27.17;14.40;;;;;;;26.22;42.95;101906.09;4425143;32;20034;-69
2021/10/09 03:44:04;;;;;;;24.45;13.62;;;;;;;26.16;42.90;101905.28;4423475;32;20084;-69
2021/10/09 03:46:32;;;;;;;29.42;16.23;;;;;;;26.31;42.82;101902.97;4422070;32;20085;-69
2021/10/09 03:54:20;;;;;;;24.30;13.88;;;;;;;26.84;41.97;101892.06;4435099;32;20029;-70
2021/10/09 03:56:45;;;;;;;24.80;14.35;;;;;;;26.18;42.81;101902.69;4439402;32;20195;-70
2021/10/09 03:59:12;;;;;;;26.85;14.32;;;;;;;26.28;42.80;101910.59;4436761;32;20065;-69
2021/10/09 04:01:39;;;;;;;27.30;14.65;;;;;;;26.12;42.95;101911.34;4436289;32;20077;-69
2021/10/09 04:04:05;;;;;;;28.27;16.10;;;;;;;26.06;43.14;101903.94;4437929;32;20084;-69
2021/10/09 04:06:30;;;;;;;29.80;15.85;;;;;;;25.90;43.35;101901.75;4434507;32;20776;-69
2021/10/09 04:08:56;;;;;;;30.37;16.45;;;;;;;26.06;43.02;101910.53;4438103;32;20065;-69
2021/10/09 04:11:21;;;;;;;30.12;16.62;;;;;;;25.56;44.40;101902.91;4435857;32;20128;-69
2021/10/09 04:13:47;;;;;;;31.87;16.70;;;;;;;25.69;44.03;101901.13;4432746;32;20076;-69
2021/10/09 04:16:13;;;;;;;30.92;18.20;;;;;;;25.58;44.32;101912.59;4432823;32;20108;-69
2021/10/09 04:18:39;;;;;;;30.85;17.33;;;;;;;25.72;44.12;101913.72;4439317;32;20442;-69
2021/10/09 04:21:07;;;;;;;31.75;17.45;;;;;;;25.60;44.54;101909.19;4435347;32;20415;-69
2021/10/09 04:23:32;;;;;;;32.90;17.70;;;;;;;25.61;44.52;101914.44;4437768;32;20068;-69
2021/10/09 04:25:58;;;;;;;32.55;17.17;;;;;;;25.46;44.82;101918.84;4437766;32;20029;-69
2021/10/09 04:28:24;;;;;;;30.33;17.33;;;;;;;25.71;44.35;101929.47;4431995;32;20153;-69
2021/10/09 04:30:50;;;;;;;33.05;17.67;;;;;;;25.55;44.47;101927.28;4435823;32;20580;-69
2021/10/09 04:33:15;;;;;;;35.35;17.27;;;;;;;25.61;44.49;101923.09;4436884;32;21726;-69
2021/10/09 04:35:41;;;;;;;35.50;18.12;;;;;;;25.57;44.58;101918.88;4435381;32;20107;-69
2021/10/09 04:38:08;;;;;;;31.70;17.95;;;;;;;25.87;44.04;101925.88;4433407;32;20111;-69
2021/10/09 04:40:34;;;;;;;34.08;18.33;;;;;;;25.76;44.17;101923.72;4436874;32;20021;-69
2021/10/09 04:43:00;;;;;;;35.88;18.20;;;;;;;25.72;44.05;101917.41;4434019;32;20068;-69
2021/10/09 04:45:26;;;;;;;33.05;16.92;;;;;;;25.72;44.26;101923.19;4436427;32;20362;-69
2021/10/09 04:47:51;;;;;;;30.58;16.87;;;;;;;25.83;44.13;101920.34;4435482;32;20083;-69
2021/10/09 04:50:17;;;;;;;34.63;18.00;;;;;;;25.84;43.87;101926.91;4436708;32;20141;-69
2021/10/09 04:52:43;;;;;;;35.75;17.92;;;;;;;25.82;44.05;101918.75;4436573;32;20454;-69
2021/10/09 04:55:08;;;;;;;32.75;17.00;;;;;;;25.76;44.09;101929.47;4437121;32;20021;-69
2021/10/09 04:57:34;;;;;;;32.70;15.77;;;;;;;25.90;43.87;101921.94;4436012;32;20138;-69
2021/10/09 05:00:01;;;;;;;38.20;18.40;;;;;;;25.80;44.03;101921.37;4433706;32;20443;-69
2021/10/09 05:02:27;;;;;;;35.15;17.60;;;;;;;25.89;43.78;101926.16;4427111;32;20102;-69
2021/10/09 05:04:52;;;;;;;30.30;16.92;;;;;;;25.90;43.75;101913.31;4421599;32;20058;-69
2021/10/09 05:07:19;;;;;;;33.08;17.80;;;;;;;25.88;43.88;101927.44;4425560;32;20065;-69
2021/10/09 05:09:44;;;;;;;33.17;18.25;;;;;;;25.88;43.80;101922.47;4424413;32;20532;-69
2021/10/09 05:12:10;;;;;;;31.42;18.00;;;;;;;25.92;43.79;101916.47;4424453;32;21687;-69
2021/10/09 05:14:36;;;;;;;32.08;17.58;;;;;;;26.04;43.42;101918.09;4425387;32;20042;-69
2021/10/09 05:17:02;;;;;;;32.75;17.80;;;;;;;25.93;43.76;101923.81;4424516;32;20066;-69
2021/10/09 05:19:28;;;;;;;32.00;17.25;;;;;;;25.62;44.34;101923.91;4427318;32;20616;-69
2021/10/09 05:21:53;;;;;;;32.17;17.37;;;;;;;25.59;44.53;101928.63;4423336;32;20030;-69
2021/10/09 05:24:19;;;;;;;35.20;18.37;;;;;;;25.60;44.54;101924.41;4424083;32;20077;-69
2021/10/09 05:26:44;;;;;;;32.08;17.90;;;;;;;25.48;44.59;101922.78;4424251;32;20018;-69
2021/10/09 05:29:16;;;;;;;35.30;18.27;;;;;;;25.65;44.43;101925.75;4425603;32;20477;-69
2021/10/09 05:31:42;;;;;;;35.88;18.50;;;;;;;25.67;44.43;101920.28;4423826;32;20096;-69
2021/10/09 05:34:09;;;;;;;33.13;17.92;;;;;;;25.55;44.59;101927.28;4424596;32;20503;-69
2021/10/09 05:36:35;;;;;;;32.92;17.98;;;;;;;25.63;44.72;101932.03;4424190;32;20058;-69
2021/10/09 05:39:01;;;;;;;35.33;18.30;;;;;;;25.63;44.55;101922.59;4422407;32;20107;-69
2021/10/09 05:41:27;;;;;;;40.72;18.67;;;;;;;25.62;44.46;101918.94;4425349;32;20202;-69
2021/10/09 05:43:53;;;;;;;37.92;18.73;;;;;;;25.59;44.61;101913.41;4422391;32;20065;-69
2021/10/09 05:46:19;;;;;;;32.38;17.52;;;;;;;25.52;44.90;101922.53;4426443;32;20123;-69
2021/10/09 05:48:46;;;;;;;38.38;19.05;;;;;;;25.44;44.85;101924.31;4424777;32;20415;-69
2021/10/09 05:56:51;;;;;;;34.78;18.50;;;;;;;25.67;44.52;101929.69;3984014;32;15024058;-70
2021/10/09 06:59:41;;;;;;;38.30;18.33;;;;;;;25.69;45.52;101958.81;4417316;32;19957;-70
2021/10/09 07:01:55;;;;;;;41.30;19.90;;;;;;;25.61;45.68;101956.94;4418077;32;21164;-70
2021/10/09 07:04:22;;;;;;;44.38;21.20;;;;;;;25.65;45.89;101966.94;4414401;32;20042;-70
2021/10/09 07:06:49;;;;;;;43.70;21.95;;;;;;;25.57;46.08;101965.81;4416264;32;20419;-70
2021/10/09 07:09:15;;;;;;;39.00;19.37;;;;;;;25.38;46.66;101968.28;4416253;32;20034;-70
2021/10/09 07:11:41;;;;;;;37.20;19.85;;;;;;;25.47;46.22;101966.53;4416663;32;20510;-70
2021/10/09 07:14:07;;;;;;;41.75;19.58;;;;;;;25.42;46.12;101962.28;4418676;32;20363;-70
2021/10/09 07:16:33;;;;;;;38.08;18.50;;;;;;;25.46;46.05;101962.06;4419787;32;20082;-70
2021/10/09 07:19:01;;;;;;;37.65;18.27;;;;;;;25.48;46.31;101968.87;4417889;32;20022;-70
2021/10/09 07:21:27;;;;;;;41.83;19.35;;;;;;;25.56;46.16;101972.09;4418030;32;20469;-70
2021/10/09 07:23:53;;;;;;;38.63;19.25;;;;;;;25.61;46.11;101962.69;4418648;32;20789;-69
2021/10/09 07:26:19;;;;;;;42.00;20.02;;;;;;;25.55;45.87;101974.19;4404206;32;20105;-69
2021/10/09 07:28:45;;;;;;;40.28;19.45;;;;;;;25.52;46.61;101980.19;4417304;32;20134;-69
2021/10/09 07:31:11;;;;;;;40.12;19.00;;;;;;;25.56;46.31;101970.00;4418184;32;20077;-69
2021/10/09 07:33:38;;;;;;;40.20;18.52;;;;;;;25.73;45.87;101979.53;4418090;32;20078;-69
2021/10/09 07:36:04;;;;;;;39.42;19.17;;;;;;;25.78;45.78;101973.03;4417024;32;20057;-69
2021/10/09 07:38:30;;;;;;;42.85;19.90;;;;;;;25.97;45.54;101979.16;4416758;32;20018;-69
2021/10/09 07:40:56;;;;;;;40.33;19.02;;;;;;;26.01;45.39;101979.75;4415917;32;20031;-69
2021/10/09 07:43:22;;;;;;;36.92;18.23;;;;;;;25.95;45.28;101970.25;4413502;32;20037;-69
2021/10/09 07:45:48;;;;;;;31.58;17.33;;;;;;;25.97;45.52;101979.94;4416043;32;20330;-69
2021/10/09 07:48:13;;;;;;;39.22;18.55;;;;;;;26.09;44.96;101977.94;4418660;32;20131;-69
2021/10/09 07:50:39;;;;;;;34.92;17.87;;;;;;;26.13;45.15;101982.16;4415125;32;20396;-69
2021/10/09 07:53:05;;;;;;;39.47;19.83;;;;;;;26.15;45.06;101988.22;4416783;32;20090;-69
2021/10/09 07:55:31;;;;;;;37.47;18.55;;;;;;;26.08;45.42;101982.13;4419767;32;20041;-69
2021/10/09 07:57:57;;;;;;;46.78;22.20;;;;;;;26.26;45.46;101987.47;4415385;32;20037;-69
2021/10/09 08:00:23;;;;;;;38.05;19.75;;;;;;;26.49;45.01;101986.22;4414677;32;20100;-69
2021/10/09 08:02:50;;;;;;;44.95;19.75;;;;;;;26.57;44.72;101990.19;4415202;32;20167;-69
2021/10/09 08:05:16;;;;;;;41.35;19.77;;;;;;;26.76;44.41;101997.09;4408118;32;20469;-69
2021/10/09 08:07:42;;;;;;;38.58;19.80;;;;;;;26.82;43.99;102000.78;4408216;32;20073;-69
2021/10/09 08:10:08;;;;;;;36.83;18.87;;;;;;;26.99;43.32;101995.81;4406334;32;20138;-69
2021/10/09 08:12:33;;;;;;;35.90;18.35;;;;;;;27.12;43.37;102001.91;4408740;32;20466;-69
2021/10/09 08:14:59;;;;;;;34.53;18.05;;;;;;;27.25;43.15;102002.19;4406668;32;20022;-69
2021/10/09 08:17:25;;;;;;;37.20;17.15;;;;;;;27.46;42.78;102005.59;4407669;32;20030;-69
2021/10/09 08:19:51;;;;;;;36.20;17.42;;;;;;;27.61;42.65;102006.13;4407252;32;20072;-70
2021/10/09 08:22:19;;;;;;;36.13;19.05;;;;;;;27.60;42.32;102005.31;4404489;32;20652;-70
2021/10/09 08:24:53;;;;;;;28.35;14.82;;;;;;;27.65;42.18;102010.31;4406885;32;20109;-70
2021/10/09 08:27:43;;;;;;;29.23;13.05;;;;;;;27.57;42.67;102009.25;4406869;32;20070;-69
2021/10/09 08:36:00;;;;;;;23.48;11.18;;;;;;;27.46;42.43;102014.28;4407099;32;20022;-70
2021/10/09 08:38:53;;;;;;;23.80;11.75;;;;;;;27.64;41.89;102008.72;4406611;32;20056;-70
2021/10/09 08:41:08;;;;;;;26.20;12.82;;;;;;;27.60;41.93;102016.09;4406596;32;20070;-70
2021/10/09 08:43:34;;;;;;;23.02;11.90;;;;;;;27.90;41.73;102012.16;4394930;32;20065;-70
2021/10/09 08:46:00;;;;;;;25.67;13.38;;;;;;;27.70;42.14;102018.19;4409199;32;20018;-69
2021/10/09 08:48:29;;;;;;;22.30;12.73;;;;;;;27.38;42.81;102014.00;4408390;32;20034;-69
2021/10/09 08:50:57;;;;;;;29.23;13.82;;;;;;;27.53;42.92;102011.66;4406675;32;20122;-69
2021/10/09 08:53:41;;;;;;;28.38;12.15;;;;;;;27.83;42.36;102015.56;4406280;32;20097;-70
2021/10/09 08:56:08;;;;;;;24.93;12.50;;;;;;;27.29;43.10;102007.69;4402554;32;20306;-69
2021/10/09 08:58:38;;;;;;;26.85;12.98;;;;;;;27.40;42.90;102004.81;4402327;32;20062;-70
2021/10/09 09:09:31;;;;;;;29.55;15.23;;;;;;;28.07;41.80;102017.91;4431700;32;20069;-70
2021/10/09 09:26:37;;;;;;;26.95;12.93;;;;;;;28.50;40.27;102025.63;4431515;32;20063;-69
2021/10/09 09:32:41;;;;;;;29.70;14.27;;;;;;;28.20;40.13;102024.69;4431839;32;20485;-69
2021/10/09 09:35:42;;;;;;;28.05;13.15;;;;;;;28.51;39.66;102020.66;4430947;32;20021;-69
2021/10/09 09:40:43;;;;;;;31.55;13.98;;;;;;;28.83;39.67;102025.47;3982845;32;15030930;-70
2021/10/09 09:43:11;;;;;;;28.40;13.43;;;;;;;28.83;39.67;102025.47;4431812;32;20061;-69
2021/10/09 09:45:38;;;;;;;28.67;14.63;;;;;;;28.65;39.56;102023.19;4431483;32;20081;-70
2021/10/09 09:48:06;;;;;;;28.10;13.20;;;;;;;29.02;39.17;102022.69;4431032;32;20056;-70
2021/10/09 09:50:33;;;;;;;26.00;12.85;;;;;;;28.98;38.61;102017.22;4428343;32;20068;-70
2021/10/09 09:53:00;;;;;;;29.52;14.35;;;;;;;29.22;37.90;102027.34;4430408;32;20033;-70
2021/10/09 09:55:27;;;;;;;25.00;11.82;;;;;;;29.38;37.74;102029.31;4429178;32;20062;-70
2021/10/09 09:57:53;;;;;;;20.23;10.48;;;;;;;29.32;37.30;102032.25;4425415;32;20148;-70
2021/10/09 10:00:20;;;;;;;24.30;10.88;;;;;;;29.16;37.35;102026.59;4430960;32;20378;-70
2021/10/09 10:05:27;;;;;;;21.05;11.20;;;;;;;29.30;37.87;102034.13;4001362;31;15019136;-69
2021/10/09 10:07:53;;;;;;;19.27;10.73;;;;;;;29.30;37.87;102034.13;4457019;32;20028;-69
2021/10/09 10:10:19;;;;;;;21.45;10.80;;;;;;;28.64;38.33;102029.53;4454463;32;20149;-69
2021/10/09 10:12:47;;;;;;;16.67;8.93;;;;;;;28.79;39.32;102030.78;4459041;32;20083;-69
2021/10/09 10:15:14;;;;;;;18.30;9.85;;;;;;;28.90;38.77;102030.69;4455912;32;20083;-69
2021/10/09 10:20:17;;;;;;;19.00;9.30;;;;;;;28.90;38.33;102027.78;3980171;32;15024116;-70
2021/10/09 10:28:25;;;;;;;16.00;8.88;;;;;;;29.05;37.84;102009.28;3967937;32;15023538;-70
2021/10/09 10:31:05;;;;;;;18.37;9.90;;;;;;;29.05;37.84;102009.28;4424530;32;20076;-70
2021/10/09 10:33:38;;;;;;;17.60;9.52;;;;;;;28.97;38.04;102015.63;4424418;32;20132;-70
2021/10/09 10:36:04;;;;;;;17.58;9.10;;;;;;;29.02;37.55;102016.91;4422207;32;20030;-70
2021/10/09 10:41:06;;;;;;;14.82;8.13;;;;;;;29.51;36.35;102017.88;3954897;32;15726530;-70
2021/10/09 10:59:46;;;;;;;12.60;5.45;;;;;;;30.20;34.68;102019.06;3983069;32;15036344;-70
2021/10/09 11:05:09;;;;;;;14.70;7.25;;;;;;;29.66;35.53;102018.31;3970077;32;15024700;-70
2021/10/09 11:07:37;;;;;;;14.57;7.87;;;;;;;29.83;35.66;102018.91;4427299;32;20076;-70
2021/10/09 11:12:46;;;;;;;11.70;6.55;;;;;;;30.38;35.17;102019.09;3988515;31;15016173;-70
2021/10/09 11:15:28;;;;;;;17.95;8.55;;;;;;;30.38;35.17;102019.09;4439134;32;20080;-70
2021/10/09 11:20:41;;;;;;;10.45;5.75;;;;;;;29.74;35.59;102022.97;3984989;32;15023638;-70
2021/10/09 11:23:09;;;;;;;9.93;5.37;;;;;;;29.74;35.59;102022.97;4435947;32;20160;-70
2021/10/09 11:25:37;;;;;;;13.65;6.43;;;;;;;29.30;36.47;102008.03;4437401;32;20122;-69
2021/10/09 11:28:05;;;;;;;9.48;6.15;;;;;;;29.33;36.78;102015.66;4437829;32;20078;-69
2021/10/09 11:30:32;;;;;;;10.93;5.47;;;;;;;29.43;36.32;102008.19;4431848;32;20072;-69
2021/10/09 11:32:58;;;;;;;11.23;5.50;;;;;;;29.67;35.71;102011.16;4434227;32;20093;-69
2021/10/09 11:35:34;;;;;;;11.00;5.18;;;;;;;29.72;35.56;102014.00;4435254;32;20077;-69
2021/10/09 11:38:03;;;;;;;9.98;5.47;;;;;;;29.38;35.87;102003.22;4429272;32;20304;-69
2021/10/09 11:43:25;;;;;;;9.57;4.25;;;;;;;29.37;35.16;102008.25;3998865;31;15016380;-70
2021/10/09 11:54:34;;;;;;;;;;;;;;;30.21;33.74;102009.00;4400120;32;20081;-70
2021/10/09 11:56:59;;;;;;;20.03;11.60;;;;;;;29.82;35.75;102008.63;4403033;32;20000;-70
2021/10/09 11:59:40;;;;;;;22.13;11.88;;;;;;;29.38;36.98;102009.81;4399661;32;20090;-70
2021/10/09 12:02:07;;;;;;;19.70;11.32;;;;;;;29.56;36.68;102014.13;4396455;32;20035;-70
2021/10/09 12:04:34;;;;;;;22.65;10.65;;;;;;;29.49;36.99;102009.72;4400738;32;20074;-69
2021/10/09 12:14:51;;;;;;;17.12;7.55;;;;;;;29.83;36.15;102005.19;3983125;32;15024936;-70
2021/10/09 12:17:21;;;;;;;11.30;6.22;;;;;;;29.83;36.15;102005.19;4437340;32;20033;-70
2021/10/09 12:20:06;;;;;;;10.63;6.00;;;;;;;29.71;36.14;102006.63;4438015;32;20033;-70
2021/10/09 12:22:42;;;;;;;10.70;6.20;;;;;;;29.91;35.39;102006.16;4435323;32;20042;-70
2021/10/09 12:25:19;;;;;;;15.55;5.35;;;;;;;29.99;35.50;101998.41;4438024;32;20041;-70
2021/10/09 12:27:54;;;;;;;9.45;4.78;;;;;;;30.03;35.13;101998.12;4436160;32;20037;-69
2021/10/09 12:30:21;;;;;;;7.93;3.85;;;;;;;30.50;34.23;101996.50;4438573;32;20818;-69
2021/10/09 12:32:49;;;;;;;8.02;4.70;;;;;;;30.20;33.75;101996.63;4436421;32;20421;-70
2021/10/09 12:35:23;;;;;;;8.45;5.47;;;;;;;30.74;33.20;101997.22;4431238;32;20084;-69
2021/10/09 12:43:18;;;;;;;8.30;4.72;;;;;;;31.33;32.78;102001.88;3936160;32;15024056;-71
2021/10/09 12:45:43;;;;;;;8.52;4.90;;;;;;;31.33;32.78;102001.88;4383217;32;20073;-71
2021/10/09 12:48:09;;;;;;;13.73;5.47;;;;;;;30.39;33.70;101994.50;4387190;32;20143;-69
2021/10/09 12:50:37;;;;;;;7.80;4.72;;;;;;;30.30;33.56;101989.09;4387186;32;20484;-69
2021/10/09 12:53:04;;;;;;;7.78;4.68;;;;;;;30.18;33.66;101989.72;4388150;32;20062;-69
2021/10/09 12:55:33;;;;;;;7.28;5.40;;;;;;;30.36;33.50;101986.09;4378775;32;20062;-69
2021/10/09 12:58:00;;;;;;;7.72;4.25;;;;;;;30.20;34.49;101990.81;4386071;32;20384;-69
2021/10/09 13:00:28;;;;;;;9.13;4.43;;;;;;;30.10;34.29;101994.59;4387457;32;20057;-69
2021/10/09 13:02:57;;;;;;;8.55;4.87;;;;;;;29.90;35.15;101977.66;4384416;32;20054;-69
2021/10/09 13:05:25;;;;;;;9.15;3.97;;;;;;;29.74;35.56;101981.53;4385274;32;20112;-69
2021/10/09 13:07:51;;;;;;;6.97;3.67;;;;;;;29.49;35.04;101986.50;4377535;32;20380;-69
2021/10/09 13:10:20;;;;;;;7.32;3.62;;;;;;;29.32;35.11;101982.97;4376332;32;20031;-69
2021/10/09 13:12:46;;;;;;;6.47;3.50;;;;;;;29.28;35.54;101981.69;4383546;32;20090;-69
2021/10/09 13:15:17;;;;;;;8.60;4.20;;;;;;;28.93;35.79;101979.56;4376198;32;20443;-69
2021/10/09 13:17:45;;;;;;;10.23;4.30;;;;;;;29.00;35.89;101979.00;4384320;32;20031;-69
2021/10/09 13:20:11;;;;;;;11.52;4.72;;;;;;;29.13;36.00;101976.28;4384148;32;20108;-69
2021/10/09 13:22:37;;;;;;;7.82;5.18;;;;;;;28.78;36.24;101979.91;4385343;32;20043;-69
2021/10/09 13:25:04;;;;;;;9.95;5.32;;;;;;;29.01;35.95;101978.44;4383111;32;20065;-69
2021/10/09 13:27:30;;;;;;;7.32;4.45;;;;;;;29.02;36.13;101977.12;4386467;32;20096;-69
2021/10/09 13:29:55;;;;;;;8.45;5.03;;;;;;;29.09;36.09;101972.09;4385934;32;20082;-69
2021/10/09 13:32:21;;;;;;;11.15;4.75;;;;;;;29.24;36.08;101978.28;4385039;32;20061;-69
2021/10/09 13:34:46;;;;;;;12.65;7.82;;;;;;;29.33;36.04;101977.97;4385376;32;20073;-69
2021/10/09 13:37:20;;;;;;;8.10;5.10;;;;;;;29.40;35.75;101978.16;4384561;32;20050;-69
2021/10/09 13:39:47;;;;;;;11.45;5.85;;;;;;;29.69;35.38;101971.56;4386759;32;20165;-69
2021/10/09 13:42:13;;;;;;;11.57;5.97;;;;;;;29.53;35.55;101977.50;4389031;32;20058;-70
2021/10/09 13:44:38;;;;;;;8.23;5.10;;;;;;;29.44;35.79;101969.13;4391944;32;20022;-70
2021/10/09 13:47:04;;;;;;;10.82;6.30;;;;;;;29.68;35.41;101966.28;4393776;32;20101;-69
2021/10/09 13:49:31;;;;;;;10.88;5.65;;;;;;;29.97;35.00;101968.38;4392827;32;20356;-69
2021/10/09 13:51:57;;;;;;;11.32;5.43;;;;;;;30.17;34.66;101962.03;4392316;32;20082;-69
2021/10/09 13:54:22;;;;;;;13.45;5.82;;;;;;;29.79;34.78;101966.94;4378731;32;20429;-69
2021/10/09 13:56:48;;;;;;;11.30;6.32;;;;;;;29.91;34.40;101959.69;4384255;32;20393;-69
2021/10/09 13:59:14;;;;;;;13.02;5.82;;;;;;;29.77;34.65;101955.13;4381379;32;20420;-69
2021/10/09 14:01:40;;;;;;;10.52;5.45;;;;;;;29.88;34.50;101965.81;4376260;32;20074;-69
2021/10/09 14:04:08;;;;;;;11.63;5.60;;;;;;;29.85;34.55;101956.06;4382262;32;20128;-69
2021/10/09 14:06:33;;;;;;;12.65;6.28;;;;;;;29.78;34.00;101955.87;4381603;32;20121;-69
2021/10/09 14:08:59;;;;;;;12.85;5.72;;;;;;;29.92;34.20;101958.38;4380437;32;20026;-69
2021/10/09 14:11:25;;;;;;;12.45;5.45;;;;;;;29.88;34.23;101951.31;4378626;32;20184;-70
2021/10/09 14:13:50;;;;;;;9.70;5.30;;;;;;;29.73;34.53;101950.94;4381613;32;20416;-71